createdAt,value
2023-12-10T00:04:32.889Z,5.9
2023-12-10T00:14:34.076Z,4.8
2023-12-10T00:24:35.933Z,3.7
2023-12-10T00:34:37.468Z,5.6
2023-12-10T00:44:39.633Z,5.7
2023-12-10T00:54:40.505Z,5.6
2023-12-10T01:04:42.169Z,3.9
2023-12-10T01:14:43.565Z,3.8
2023-12-10T01:24:45.229Z,2.9
2023-12-10T01:34:46.791Z,3.6
2023-12-10T01:44:48.377Z,5.4
2023-12-10T01:54:49.873Z,2.9
2023-12-10T02:04:51.520Z,5.3
2023-12-10T02:14:52.900Z,4.2
2023-12-10T02:24:54.475Z,4
2023-12-10T02:34:55.984Z,4.2
2023-12-10T02:44:57.538Z,2.6
2023-12-10T02:54:59.055Z,3.8
2023-12-10T03:05:03.213Z,3.5
2023-12-10T03:15:02.055Z,2.7
2023-12-10T03:25:03.503Z,2.2
2023-12-10T03:35:04.898Z,6.7
2023-12-10T03:45:06.328Z,4.5
2023-12-10T03:55:07.732Z,2.3
2023-12-10T04:05:09.228Z,2.6
2023-12-10T04:15:10.575Z,1.8
2023-12-10T04:25:11.936Z,3.4
2023-12-10T04:35:13.420Z,2.3
2023-12-10T04:45:14.934Z,2
2023-12-10T04:55:16.271Z,2.3
2023-12-10T05:05:17.784Z,2.9
2023-12-10T05:15:19.160Z,4.8
2023-12-10T05:25:20.474Z,2.9
2023-12-10T05:35:21.904Z,3.4
2023-12-10T05:45:23.384Z,2.5
2023-12-10T05:55:24.738Z,2.7
2023-12-10T06:05:26.345Z,2.2
2023-12-10T06:15:27.783Z,2.3
2023-12-10T06:25:29.274Z,2.5
2023-12-10T06:35:30.800Z,1.8
2023-12-10T06:45:32.341Z,2
2023-12-10T06:55:33.798Z,1.3
2023-12-10T07:05:35.435Z,1.6
2023-12-10T07:15:36.861Z,1.5
2023-12-10T07:25:38.254Z,1.3
2023-12-10T07:35:39.819Z,1.8
2023-12-10T07:45:41.260Z,1.8
2023-12-10T07:55:42.739Z,2.2
2023-12-10T08:05:44.221Z,1.7
2023-12-10T08:15:45.772Z,2.7
2023-12-10T08:25:47.148Z,1.1
2023-12-10T08:35:48.584Z,1.7
2023-12-10T08:45:50.099Z,3.3
2023-12-10T08:55:51.623Z,2.1
2023-12-10T09:05:53.046Z,2.8
2023-12-10T09:15:54.573Z,3.4
2023-12-10T09:25:55.925Z,4
2023-12-10T09:35:57.379Z,2.6
2023-12-10T09:45:58.873Z,2.3
2023-12-10T09:56:00.398Z,3.6
2023-12-10T10:06:01.724Z,2.9
2023-12-10T10:16:03.231Z,2.5
2023-12-10T10:26:04.698Z,2.1
2023-12-10T10:36:06.172Z,4
2023-12-10T10:46:07.753Z,3.2
2023-12-10T10:56:09.103Z,4.7
2023-12-10T11:06:10.637Z,4.3
2023-12-10T11:16:12.069Z,4.8
2023-12-10T11:26:14.821Z,4.6
2023-12-10T11:36:16.919Z,5.9
2023-12-10T11:46:16.349Z,4.8
2023-12-10T11:56:17.851Z,5.7
2023-12-10T12:06:19.436Z,4.9
2023-12-10T12:16:20.994Z,4.6
2023-12-10T12:26:22.619Z,6.2
2023-12-10T12:36:24.222Z,4.6
2023-12-10T12:45:45.717Z,4.6
2023-12-10T12:56:27.199Z,6.5
2023-12-10T13:06:28.847Z,4.6
2023-12-10T13:16:30.275Z,4.5
2023-12-10T13:26:31.939Z,6.5
2023-12-10T13:36:33.598Z,7.4
2023-12-10T13:46:35.149Z,5.2
2023-12-10T13:56:36.797Z,5
2023-12-10T14:06:38.381Z,5.3
2023-12-10T14:16:40.033Z,10.8
2023-12-10T14:26:41.608Z,10.9
2023-12-10T14:36:43.305Z,7.4
2023-12-10T14:46:45.075Z,5.8
2023-12-10T14:56:46.868Z,8.9
2023-12-10T15:06:48.698Z,5.9
2023-12-10T15:16:50.595Z,7.1
2023-12-10T15:26:52.510Z,7.5
2023-12-10T15:36:54.469Z,5.1
2023-12-10T15:46:56.488Z,7.2
2023-12-10T15:56:58.481Z,8.6
2023-12-10T16:07:00.674Z,6.5
2023-12-10T16:17:02.722Z,8.9
2023-12-10T16:27:04.569Z,8.3
2023-12-10T16:37:06.507Z,7.3
2023-12-10T16:47:08.343Z,4.4
2023-12-10T16:57:10.198Z,6.2
2023-12-10T17:07:11.957Z,5.7
2023-12-10T17:17:13.671Z,11.7
2023-12-10T17:27:15.373Z,7.5
2023-12-10T17:37:17.057Z,6.3
2023-12-10T17:47:18.775Z,5.2
2023-12-10T17:57:20.485Z,3.6
2023-12-10T18:07:23.869Z,6.9
2023-12-10T18:17:24.031Z,6.9
2023-12-10T18:27:26.733Z,3.2
2023-12-10T18:38:17.502Z,4.5
2023-12-10T18:41:01.271Z,4.5
2023-12-10T18:41:26.487Z,4.5
2023-12-10T18:44:50.404Z,4.5
2023-12-10T18:47:29.111Z,2.5
2023-12-10T19:02:30.730Z,4.9
2023-12-10T19:09:15.612Z,1.8
2023-12-10T19:16:56.941Z,1.8
2023-12-10T19:17:34.299Z,1.2
2023-12-10T19:26:34.002Z,1.2
2023-12-10T19:27:40.071Z,2.1
2023-12-10T19:35:41.142Z,2.1
2023-12-10T19:37:40.462Z,1.4
2023-12-10T19:47:39.101Z,2.2
2023-12-10T19:57:58.135Z,0.9
2023-12-10T19:58:25.688Z,0.9
2023-12-10T20:06:29.198Z,0.9
2023-12-10T20:07:44.994Z,1.6
2023-12-10T20:12:17.356Z,1.6
2023-12-10T20:17:44.286Z,3.4
2023-12-10T20:20:06.249Z,3.4
2023-12-10T20:22:57.174Z,3.4
2023-12-10T20:28:18.064Z,3.1
2023-12-10T20:28:58.541Z,3.1
2023-12-10T20:30:14.925Z,3.1
2023-12-10T20:37:48.624Z,1.9
2023-12-10T20:48:03.609Z,2.5
2023-12-10T20:49:35.844Z,2.5
2023-12-10T20:54:17.762Z,2.5
2023-12-10T20:56:28.456Z,2.5
2023-12-10T20:57:54.845Z,4.3
2023-12-10T21:03:45.424Z,4.3
2023-12-10T21:04:22.136Z,4.3
2023-12-10T21:07:52.283Z,4.2
2023-12-10T21:17:54.161Z,8
2023-12-10T21:27:57.742Z,9.8
2023-12-10T21:37:58.893Z,9.2
2023-12-10T21:47:59.267Z,11.3
2023-12-10T21:58:33.966Z,9.4
2023-12-10T21:59:28.518Z,9.4
2023-12-10T22:02:17.508Z,9.4
2023-12-10T22:03:15.858Z,9.4
2023-12-10T22:04:40.927Z,9.4
2023-12-10T22:06:02.380Z,9.4
2023-12-10T22:08:07.159Z,7.9
2023-12-10T22:18:04.618Z,7.4
2023-12-10T22:28:06.353Z,11.7
2023-12-10T22:38:08.086Z,16.8
2023-12-10T22:44:21.998Z,16.8
2023-12-10T22:45:20.867Z,16.8
2023-12-10T22:48:23.962Z,11.6
2023-12-10T22:51:35.476Z,11.6
2023-12-10T22:52:32.524Z,11.6
2023-12-10T22:58:11.678Z,9.3
2023-12-10T22:58:35.952Z,9.3
2023-12-10T23:01:35.915Z,9.3
2023-12-10T23:03:41.918Z,9.3
2023-12-10T23:06:26.673Z,9.3
2023-12-10T23:08:13.280Z,18
2023-12-10T23:10:03.955Z,18
2023-12-10T23:12:24.555Z,18
2023-12-10T23:16:31.897Z,18
2023-12-10T23:18:14.799Z,8.3
2023-12-10T23:28:16.467Z,7.7
2023-12-10T23:38:18.020Z,10.8
2023-12-10T23:40:44.422Z,10.8
2023-12-10T23:48:19.902Z,7
2023-12-10T23:53:25.011Z,7
2023-12-10T23:54:14.443Z,7
2023-12-10T23:58:22.859Z,3.8
